sensor_id;sensor_type;location;lat;lon;timestamp;temperature;humidity
9201;DHT22;4635;48.686;9.008;2023-05-07T00:01:59;13.20;1.00
9201;DHT22;4635;48.686;9.008;2023-05-07T00:04:34;13.10;1.00
9201;DHT22;4635;48.686;9.008;2023-05-07T00:07:16;13.10;20.80
9201;DHT22;4635;48.686;9.008;2023-05-07T00:09:45;13.10;99.90
9201;DHT22;4635;48.686;9.008;2023-05-07T00:12:21;13.10;58.60
9201;DHT22;4635;48.686;9.008;2023-05-07T00:14:52;13.10;65.20
9201;DHT22;4635;48.686;9.008;2023-05-07T00:17:22;13.10;99.90
9201;DHT22;4635;48.686;9.008;2023-05-07T00:19:54;13.10;1.00
9201;DHT22;4635;48.686;9.008;2023-05-07T00:22:24;13.10;99.90
9201;DHT22;4635;48.686;9.008;2023-05-07T00:24:55;13.10;12.90
9201;DHT22;4635;48.686;9.008;2023-05-07T00:27:26;13.00;99.90
9201;DHT22;4635;48.686;9.008;2023-05-07T00:29:55;13.00;99.90
9201;DHT22;4635;48.686;9.008;2023-05-07T00:32:25;13.00;99.90
9201;DHT22;4635;48.686;9.008;2023-05-07T00:35:00;13.00;99.90
9201;DHT22;4635;48.686;9.008;2023-05-07T00:37:30;12.90;99.90
9201;DHT22;4635;48.686;9.008;2023-05-07T00:40:02;13.00;99.90
9201;DHT22;4635;48.686;9.008;2023-05-07T00:42:33;12.80;99.90
9201;DHT22;4635;48.686;9.008;2023-05-07T00:45:02;12.70;1.00
9201;DHT22;4635;48.686;9.008;2023-05-07T00:47:32;12.70;1.00
9201;DHT22;4635;48.686;9.008;2023-05-07T00:50:03;12.70;99.90
9201;DHT22;4635;48.686;9.008;2023-05-07T00:52:32;12.50;1.00
9201;DHT22;4635;48.686;9.008;2023-05-07T00:55:24;12.50;99.90
9201;DHT22;4635;48.686;9.008;2023-05-07T00:58:07;12.40;99.90
9201;DHT22;4635;48.686;9.008;2023-05-07T01:00:49;12.30;99.90
9201;DHT22;4635;48.686;9.008;2023-05-07T01:03:17;12.30;1.00
9201;DHT22;4635;48.686;9.008;2023-05-07T01:06:06;12.20;1.00
9201;DHT22;4635;48.686;9.008;2023-05-07T01:08:39;12.30;90.50
9201;DHT22;4635;48.686;9.008;2023-05-07T01:11:08;12.20;99.90
9201;DHT22;4635;48.686;9.008;2023-05-07T01:13:37;12.20;99.90
9201;DHT22;4635;48.686;9.008;2023-05-07T01:16:22;12.30;99.90
9201;DHT22;4635;48.686;9.008;2023-05-07T01:18:52;12.30;99.90
9201;DHT22;4635;48.686;9.008;2023-05-07T01:21:26;12.30;1.00
9201;DHT22;4635;48.686;9.008;2023-05-07T01:23:59;12.30;1.00
9201;DHT22;4635;48.686;9.008;2023-05-07T01:26:30;12.20;1.00
9201;DHT22;4635;48.686;9.008;2023-05-07T01:29:12;12.20;1.00
9201;DHT22;4635;48.686;9.008;2023-05-07T01:31:42;12.20;1.00
9201;DHT22;4635;48.686;9.008;2023-05-07T01:34:11;12.20;1.00
9201;DHT22;4635;48.686;9.008;2023-05-07T01:36:41;12.30;1.00
9201;DHT22;4635;48.686;9.008;2023-05-07T01:39:17;12.30;1.00
9201;DHT22;4635;48.686;9.008;2023-05-07T01:41:45;12.40;99.90
9201;DHT22;4635;48.686;9.008;2023-05-07T01:44:16;12.50;99.90
9201;DHT22;4635;48.686;9.008;2023-05-07T01:46:47;12.50;17.90
9201;DHT22;4635;48.686;9.008;2023-05-07T01:49:16;12.50;1.00
9201;DHT22;4635;48.686;9.008;2023-05-07T01:51:49;12.50;99.90
9201;DHT22;4635;48.686;9.008;2023-05-07T01:54:21;12.40;1.00
9201;DHT22;4635;48.686;9.008;2023-05-07T01:56:55;12.30;1.00
9201;DHT22;4635;48.686;9.008;2023-05-07T01:59:28;12.30;1.00
9201;DHT22;4635;48.686;9.008;2023-05-07T02:01:57;12.30;99.90
9201;DHT22;4635;48.686;9.008;2023-05-07T02:04:30;12.30;99.90
9201;DHT22;4635;48.686;9.008;2023-05-07T02:06:59;12.40;1.00
9201;DHT22;4635;48.686;9.008;2023-05-07T02:09:36;12.30;1.00
9201;DHT22;4635;48.686;9.008;2023-05-07T02:12:04;12.40;1.00
9201;DHT22;4635;48.686;9.008;2023-05-07T02:14:34;12.30;99.90
9201;DHT22;4635;48.686;9.008;2023-05-07T02:17:07;12.30;1.00
9201;DHT22;4635;48.686;9.008;2023-05-07T02:19:40;12.20;2.60
9201;DHT22;4635;48.686;9.008;2023-05-07T02:22:12;12.10;99.90
9201;DHT22;4635;48.686;9.008;2023-05-07T02:24:45;12.20;99.90
9201;DHT22;4635;48.686;9.008;2023-05-07T02:27:15;12.10;99.90
9201;DHT22;4635;48.686;9.008;2023-05-07T02:29:50;12.10;1.00
9201;DHT22;4635;48.686;9.008;2023-05-07T02:32:21;12.10;99.90
9201;DHT22;4635;48.686;9.008;2023-05-07T02:34:53;12.10;99.90
9201;DHT22;4635;48.686;9.008;2023-05-07T02:37:20;12.00;99.90
9201;DHT22;4635;48.686;9.008;2023-05-07T02:39:55;12.00;99.90
9201;DHT22;4635;48.686;9.008;2023-05-07T02:42:23;12.00;1.00
9201;DHT22;4635;48.686;9.008;2023-05-07T02:44:55;12.00;1.00
9201;DHT22;4635;48.686;9.008;2023-05-07T02:47:25;11.90;1.00
9201;DHT22;4635;48.686;9.008;2023-05-07T02:49:56;11.80;99.90
9201;DHT22;4635;48.686;9.008;2023-05-07T02:52:31;11.70;99.90
9201;DHT22;4635;48.686;9.008;2023-05-07T02:55:02;11.60;99.90
9201;DHT22;4635;48.686;9.008;2023-05-07T02:57:32;11.60;99.90
9201;DHT22;4635;48.686;9.008;2023-05-07T03:00:12;11.60;99.90
9201;DHT22;4635;48.686;9.008;2023-05-07T03:02:40;11.40;99.90
9201;DHT22;4635;48.686;9.008;2023-05-07T03:05:08;11.40;99.90
9201;DHT22;4635;48.686;9.008;2023-05-07T03:07:37;11.30;1.00
9201;DHT22;4635;48.686;9.008;2023-05-07T03:10:21;11.20;1.00
9201;DHT22;4635;48.686;9.008;2023-05-07T03:12:53;11.20;1.00
9201;DHT22;4635;48.686;9.008;2023-05-07T03:15:26;11.10;1.00
9201;DHT22;4635;48.686;9.008;2023-05-07T03:17:56;11.10;1.00
9201;DHT22;4635;48.686;9.008;2023-05-07T03:20:27;11.10;1.00
9201;DHT22;4635;48.686;9.008;2023-05-07T03:23:10;11.10;1.00
9201;DHT22;4635;48.686;9.008;2023-05-07T03:25:41;11.00;1.00
9201;DHT22;4635;48.686;9.008;2023-05-07T03:28:16;11.00;1.00
9201;DHT22;4635;48.686;9.008;2023-05-07T03:30:57;11.00;1.00
9201;DHT22;4635;48.686;9.008;2023-05-07T03:33:26;11.00;1.00
9201;DHT22;4635;48.686;9.008;2023-05-07T03:36:09;11.00;1.00
9201;DHT22;4635;48.686;9.008;2023-05-07T03:38:39;11.00;1.00
9201;DHT22;4635;48.686;9.008;2023-05-07T03:41:17;11.00;1.00
9201;DHT22;4635;48.686;9.008;2023-05-07T03:43:45;11.10;1.00
9201;DHT22;4635;48.686;9.008;2023-05-07T03:46:15;11.20;1.00
9201;DHT22;4635;48.686;9.008;2023-05-07T03:48:44;11.20;1.00
9201;DHT22;4635;48.686;9.008;2023-05-07T03:51:13;11.10;1.00
9201;DHT22;4635;48.686;9.008;2023-05-07T03:53:43;11.10;1.00
9201;DHT22;4635;48.686;9.008;2023-05-07T03:56:17;11.10;1.00
9201;DHT22;4635;48.686;9.008;2023-05-07T03:58:52;11.00;1.00
9201;DHT22;4635;48.686;9.008;2023-05-07T04:01:20;11.00;1.00
9201;DHT22;4635;48.686;9.008;2023-05-07T04:03:48;11.00;1.00
9201;DHT22;4635;48.686;9.008;2023-05-07T04:06:17;10.90;1.00
9201;DHT22;4635;48.686;9.008;2023-05-07T04:08:48;10.90;1.00
9201;DHT22;4635;48.686;9.008;2023-05-07T04:11:19;11.00;1.00
9201;DHT22;4635;48.686;9.008;2023-05-07T04:13:47;11.00;1.00
9201;DHT22;4635;48.686;9.008;2023-05-07T04:16:18;10.90;1.00
9201;DHT22;4635;48.686;9.008;2023-05-07T04:18:46;10.90;1.00
9201;DHT22;4635;48.686;9.008;2023-05-07T04:21:18;10.90;1.00
9201;DHT22;4635;48.686;9.008;2023-05-07T04:23:46;10.90;1.00
9201;DHT22;4635;48.686;9.008;2023-05-07T04:26:15;11.00;1.00
9201;DHT22;4635;48.686;9.008;2023-05-07T04:31:30;11.00;1.00
9201;DHT22;4635;48.686;9.008;2023-05-07T04:33:58;11.10;1.00
9201;DHT22;4635;48.686;9.008;2023-05-07T04:36:26;11.10;1.00
9201;DHT22;4635;48.686;9.008;2023-05-07T04:39:00;11.10;1.00
9201;DHT22;4635;48.686;9.008;2023-05-07T04:41:35;11.00;1.00
9201;DHT22;4635;48.686;9.008;2023-05-07T04:44:03;11.00;1.00
9201;DHT22;4635;48.686;9.008;2023-05-07T04:46:32;10.90;1.00
9201;DHT22;4635;48.686;9.008;2023-05-07T04:49:01;10.90;1.00
9201;DHT22;4635;48.686;9.008;2023-05-07T04:51:29;10.90;1.00
9201;DHT22;4635;48.686;9.008;2023-05-07T04:53:58;10.90;1.00
9201;DHT22;4635;48.686;9.008;2023-05-07T04:56:27;10.90;1.00
9201;DHT22;4635;48.686;9.008;2023-05-07T04:58:55;11.00;1.00
9201;DHT22;4635;48.686;9.008;2023-05-07T05:01:23;11.00;1.00
9201;DHT22;4635;48.686;9.008;2023-05-07T05:03:53;11.10;1.00
9201;DHT22;4635;48.686;9.008;2023-05-07T05:06:21;11.00;1.00
9201;DHT22;4635;48.686;9.008;2023-05-07T05:08:51;11.00;1.00
9201;DHT22;4635;48.686;9.008;2023-05-07T05:11:20;11.10;1.00
9201;DHT22;4635;48.686;9.008;2023-05-07T05:13:50;11.20;1.00
9201;DHT22;4635;48.686;9.008;2023-05-07T05:16:21;11.30;1.00
9201;DHT22;4635;48.686;9.008;2023-05-07T05:19:10;11.30;1.00
9201;DHT22;4635;48.686;9.008;2023-05-07T05:21:43;11.40;1.00
9201;DHT22;4635;48.686;9.008;2023-05-07T05:24:14;11.60;1.00
9201;DHT22;4635;48.686;9.008;2023-05-07T05:26:43;11.80;1.00
9201;DHT22;4635;48.686;9.008;2023-05-07T05:29:12;11.90;1.00
9201;DHT22;4635;48.686;9.008;2023-05-07T05:31:43;12.00;99.90
9201;DHT22;4635;48.686;9.008;2023-05-07T05:34:14;12.10;1.00
9201;DHT22;4635;48.686;9.008;2023-05-07T05:36:45;12.10;1.00
9201;DHT22;4635;48.686;9.008;2023-05-07T05:39:14;12.20;1.00
9201;DHT22;4635;48.686;9.008;2023-05-07T05:41:52;12.30;1.00
9201;DHT22;4635;48.686;9.008;2023-05-07T05:44:24;12.50;1.00
9201;DHT22;4635;48.686;9.008;2023-05-07T05:46:52;12.60;27.90
9201;DHT22;4635;48.686;9.008;2023-05-07T05:49:22;12.70;1.00
9201;DHT22;4635;48.686;9.008;2023-05-07T05:51:51;12.90;99.90
9201;DHT22;4635;48.686;9.008;2023-05-07T05:54:20;13.00;1.00
9201;DHT22;4635;48.686;9.008;2023-05-07T05:56:50;13.10;99.90
9201;DHT22;4635;48.686;9.008;2023-05-07T05:59:20;13.20;1.00
9201;DHT22;4635;48.686;9.008;2023-05-07T06:01:48;13.30;99.90
9201;DHT22;4635;48.686;9.008;2023-05-07T06:04:16;13.50;1.00
9201;DHT22;4635;48.686;9.008;2023-05-07T06:09:36;13.80;1.00
9201;DHT22;4635;48.686;9.008;2023-05-07T06:12:07;14.00;1.00
9201;DHT22;4635;48.686;9.008;2023-05-07T06:14:35;14.50;99.90
9201;DHT22;4635;48.686;9.008;2023-05-07T06:17:03;15.10;1.00
9201;DHT22;4635;48.686;9.008;2023-05-07T06:19:32;15.20;1.00
9201;DHT22;4635;48.686;9.008;2023-05-07T06:22:04;15.30;1.00
9201;DHT22;4635;48.686;9.008;2023-05-07T06:24:31;15.10;1.00
9201;DHT22;4635;48.686;9.008;2023-05-07T06:27:14;15.00;1.00
9201;DHT22;4635;48.686;9.008;2023-05-07T06:29:43;15.10;1.00
9201;DHT22;4635;48.686;9.008;2023-05-07T06:32:12;15.10;99.90
9201;DHT22;4635;48.686;9.008;2023-05-07T06:34:45;15.20;26.60
9201;DHT22;4635;48.686;9.008;2023-05-07T06:37:12;15.20;1.00
9201;DHT22;4635;48.686;9.008;2023-05-07T06:39:42;15.20;1.00
9201;DHT22;4635;48.686;9.008;2023-05-07T06:42:09;15.20;1.00
9201;DHT22;4635;48.686;9.008;2023-05-07T06:44:38;15.20;1.00
9201;DHT22;4635;48.686;9.008;2023-05-07T06:47:08;15.40;99.90
9201;DHT22;4635;48.686;9.008;2023-05-07T06:49:42;15.60;99.90
9201;DHT22;4635;48.686;9.008;2023-05-07T06:52:28;15.70;1.00
9201;DHT22;4635;48.686;9.008;2023-05-07T06:55:10;15.80;1.00
9201;DHT22;4635;48.686;9.008;2023-05-07T06:57:45;15.90;99.90
9201;DHT22;4635;48.686;9.008;2023-05-07T07:09:07;16.70;76.20
9201;DHT22;4635;48.686;9.008;2023-05-07T07:11:43;16.80;99.90
9201;DHT22;4635;48.686;9.008;2023-05-07T07:14:28;16.80;6.40
9201;DHT22;4635;48.686;9.008;2023-05-07T07:17:15;17.00;1.00
9201;DHT22;4635;48.686;9.008;2023-05-07T07:20:00;17.00;1.00
9201;DHT22;4635;48.686;9.008;2023-05-07T07:22:38;17.40;99.90
9201;DHT22;4635;48.686;9.008;2023-05-07T07:40:20;17.70;1.00
9201;DHT22;4635;48.686;9.008;2023-05-07T07:43:15;17.70;99.90
9201;DHT22;4635;48.686;9.008;2023-05-07T07:45:46;17.80;1.00
9201;DHT22;4635;48.686;9.008;2023-05-07T07:48:27;18.00;99.90
9201;DHT22;4635;48.686;9.008;2023-05-07T07:50:56;18.20;99.90
9201;DHT22;4635;48.686;9.008;2023-05-07T07:53:37;18.20;1.00
9201;DHT22;4635;48.686;9.008;2023-05-07T07:56:21;18.10;1.00
9201;DHT22;4635;48.686;9.008;2023-05-07T07:58:50;18.10;1.00
9201;DHT22;4635;48.686;9.008;2023-05-07T08:01:45;18.30;61.50
9201;DHT22;4635;48.686;9.008;2023-05-07T08:04:26;18.40;99.90
9201;DHT22;4635;48.686;9.008;2023-05-07T08:06:59;18.70;1.00
9201;DHT22;4635;48.686;9.008;2023-05-07T08:09:28;18.90;1.00
9201;DHT22;4635;48.686;9.008;2023-05-07T08:12:16;19.60;1.00
9201;DHT22;4635;48.686;9.008;2023-05-07T08:14:49;20.60;1.00
9201;DHT22;4635;48.686;9.008;2023-05-07T08:17:26;21.40;1.00
9201;DHT22;4635;48.686;9.008;2023-05-07T08:19:59;21.90;1.00
9201;DHT22;4635;48.686;9.008;2023-05-07T08:22:42;22.20;1.00
9201;DHT22;4635;48.686;9.008;2023-05-07T08:25:19;22.00;1.00
9201;DHT22;4635;48.686;9.008;2023-05-07T08:34:02;22.50;1.00
9201;DHT22;4635;48.686;9.008;2023-05-07T08:39:31;23.30;1.00
9201;DHT22;4635;48.686;9.008;2023-05-07T08:42:23;23.80;1.00
9201;DHT22;4635;48.686;9.008;2023-05-07T08:45:05;23.90;1.00
9201;DHT22;4635;48.686;9.008;2023-05-07T08:47:46;23.10;1.00
9201;DHT22;4635;48.686;9.008;2023-05-07T08:50:30;23.70;1.00
9201;DHT22;4635;48.686;9.008;2023-05-07T08:53:12;23.70;1.00
9201;DHT22;4635;48.686;9.008;2023-05-07T08:56:01;24.20;1.00
9201;DHT22;4635;48.686;9.008;2023-05-07T08:58:41;24.60;1.00
9201;DHT22;4635;48.686;9.008;2023-05-07T09:04:26;23.10;1.00
9201;DHT22;4635;48.686;9.008;2023-05-07T09:59:01;27.80;1.00
9201;DHT22;4635;48.686;9.008;2023-05-07T10:01:33;27.20;1.00
9201;DHT22;4635;48.686;9.008;2023-05-07T10:04:17;25.20;1.00
9201;DHT22;4635;48.686;9.008;2023-05-07T10:07:00;25.60;1.00
9201;DHT22;4635;48.686;9.008;2023-05-07T10:09:41;26.20;1.00
9201;DHT22;4635;48.686;9.008;2023-05-07T10:12:23;27.00;1.00
9201;DHT22;4635;48.686;9.008;2023-05-07T10:23:49;28.40;1.00
9201;DHT22;4635;48.686;9.008;2023-05-07T10:26:35;28.00;1.00
9201;DHT22;4635;48.686;9.008;2023-05-07T10:29:29;28.90;1.00
9201;DHT22;4635;48.686;9.008;2023-05-07T10:32:29;30.70;1.00
9201;DHT22;4635;48.686;9.008;2023-05-07T10:35:19;29.20;1.00
9201;DHT22;4635;48.686;9.008;2023-05-07T10:38:27;30.00;1.00
9201;DHT22;4635;48.686;9.008;2023-05-07T11:16:19;27.10;1.00
9201;DHT22;4635;48.686;9.008;2023-05-07T11:18:59;27.50;1.00
9201;DHT22;4635;48.686;9.008;2023-05-07T11:22:02;26.20;1.00
9201;DHT22;4635;48.686;9.008;2023-05-07T11:24:46;26.20;1.00
9201;DHT22;4635;48.686;9.008;2023-05-07T11:27:55;26.30;1.00
9201;DHT22;4635;48.686;9.008;2023-05-07T11:30:47;25.90;1.00
9201;DHT22;4635;48.686;9.008;2023-05-07T11:36:20;24.60;1.00
9201;DHT22;4635;48.686;9.008;2023-05-07T11:38:59;24.20;1.00
9201;DHT22;4635;48.686;9.008;2023-05-07T11:41:40;23.80;1.00
9201;DHT22;4635;48.686;9.008;2023-05-07T11:50:12;24.00;1.00
9201;DHT22;4635;48.686;9.008;2023-05-07T12:17:03;19.40;1.00
9201;DHT22;4635;48.686;9.008;2023-05-07T12:23:01;19.20;1.00
9201;DHT22;4635;48.686;9.008;2023-05-07T12:25:46;19.20;1.00
9201;DHT22;4635;48.686;9.008;2023-05-07T12:28:29;18.90;1.00
9201;DHT22;4635;48.686;9.008;2023-05-07T12:31:20;18.80;1.00
9201;DHT22;4635;48.686;9.008;2023-05-07T13:01:19;16.10;99.50
9201;DHT22;4635;48.686;9.008;2023-05-07T13:04:29;15.90;99.90
9201;DHT22;4635;48.686;9.008;2023-05-07T13:07:35;15.80;99.90
9201;DHT22;4635;48.686;9.008;2023-05-07T13:10:19;15.30;99.90
9201;DHT22;4635;48.686;9.008;2023-05-07T14:25:31;13.90;99.90
9201;DHT22;4635;48.686;9.008;2023-05-07T14:28:17;14.00;99.90
9201;DHT22;4635;48.686;9.008;2023-05-07T14:31:09;14.10;99.90
9201;DHT22;4635;48.686;9.008;2023-05-07T14:33:57;14.00;99.90
9201;DHT22;4635;48.686;9.008;2023-05-07T14:36:42;14.10;99.90
9201;DHT22;4635;48.686;9.008;2023-05-07T14:39:31;14.20;99.90
9201;DHT22;4635;48.686;9.008;2023-05-07T14:45:29;14.30;99.90
9201;DHT22;4635;48.686;9.008;2023-05-07T14:48:17;14.40;99.90
9201;DHT22;4635;48.686;9.008;2023-05-07T14:51:03;14.40;99.90
9201;DHT22;4635;48.686;9.008;2023-05-07T14:59:40;14.50;99.90
9201;DHT22;4635;48.686;9.008;2023-05-07T15:02:38;14.50;99.90
9201;DHT22;4635;48.686;9.008;2023-05-07T15:05:42;14.60;99.90
9201;DHT22;4635;48.686;9.008;2023-05-07T15:08:31;14.80;99.90
9201;DHT22;4635;48.686;9.008;2023-05-07T15:11:35;14.50;99.90
9201;DHT22;4635;48.686;9.008;2023-05-07T15:14:46;14.50;99.90
9201;DHT22;4635;48.686;9.008;2023-05-07T15:17:20;14.70;99.90
9201;DHT22;4635;48.686;9.008;2023-05-07T15:28:44;15.20;99.90
9201;DHT22;4635;48.686;9.008;2023-05-07T15:31:27;15.20;99.90
9201;DHT22;4635;48.686;9.008;2023-05-07T15:33:57;15.10;99.90
9201;DHT22;4635;48.686;9.008;2023-05-07T15:36:39;15.10;99.90
9201;DHT22;4635;48.686;9.008;2023-05-07T15:39:23;15.20;99.90
9201;DHT22;4635;48.686;9.008;2023-05-07T15:41:53;15.30;99.90
9201;DHT22;4635;48.686;9.008;2023-05-07T15:50:31;15.50;99.90
9201;DHT22;4635;48.686;9.008;2023-05-07T15:53:12;15.60;99.90
9201;DHT22;4635;48.686;9.008;2023-05-07T15:56:01;15.60;99.90
9201;DHT22;4635;48.686;9.008;2023-05-07T15:58:34;15.70;99.90
9201;DHT22;4635;48.686;9.008;2023-05-07T16:07:26;15.90;99.90
9201;DHT22;4635;48.686;9.008;2023-05-07T16:10:11;16.00;99.90
9201;DHT22;4635;48.686;9.008;2023-05-07T16:12:39;16.10;99.90
9201;DHT22;4635;48.686;9.008;2023-05-07T16:15:13;16.20;99.90
9201;DHT22;4635;48.686;9.008;2023-05-07T16:18:01;16.30;99.90
9201;DHT22;4635;48.686;9.008;2023-05-07T16:20:59;16.20;99.90
9201;DHT22;4635;48.686;9.008;2023-05-07T16:23:36;16.30;99.90
9201;DHT22;4635;48.686;9.008;2023-05-07T16:26:34;16.20;99.90
9201;DHT22;4635;48.686;9.008;2023-05-07T16:29:16;16.20;99.90
9201;DHT22;4635;48.686;9.008;2023-05-07T16:32:02;16.40;99.90
9201;DHT22;4635;48.686;9.008;2023-05-07T16:34:44;16.50;99.90
9201;DHT22;4635;48.686;9.008;2023-05-07T16:37:15;16.50;99.90
9201;DHT22;4635;48.686;9.008;2023-05-07T16:51:40;16.30;99.90
9201;DHT22;4635;48.686;9.008;2023-05-07T16:54:21;16.40;99.90
9201;DHT22;4635;48.686;9.008;2023-05-07T16:56:52;16.50;99.90
9201;DHT22;4635;48.686;9.008;2023-05-07T16:59:20;16.60;99.90
9201;DHT22;4635;48.686;9.008;2023-05-07T17:02:03;16.60;99.90
9201;DHT22;4635;48.686;9.008;2023-05-07T17:04:36;16.60;99.90
9201;DHT22;4635;48.686;9.008;2023-05-07T17:07:26;16.60;99.90
9201;DHT22;4635;48.686;9.008;2023-05-07T17:10:01;16.70;99.90
9201;DHT22;4635;48.686;9.008;2023-05-07T17:12:46;16.60;99.90
9201;DHT22;4635;48.686;9.008;2023-05-07T17:15:15;16.50;99.90
9201;DHT22;4635;48.686;9.008;2023-05-07T17:17:45;16.30;99.90
9201;DHT22;4635;48.686;9.008;2023-05-07T17:20:14;16.20;99.90
9201;DHT22;4635;48.686;9.008;2023-05-07T17:22:44;16.20;99.90
9201;DHT22;4635;48.686;9.008;2023-05-07T17:25:14;16.20;99.90
9201;DHT22;4635;48.686;9.008;2023-05-07T17:27:45;16.30;99.90
9201;DHT22;4635;48.686;9.008;2023-05-07T17:30:20;16.20;99.90
9201;DHT22;4635;48.686;9.008;2023-05-07T17:33:07;16.20;99.90
9201;DHT22;4635;48.686;9.008;2023-05-07T17:35:41;16.20;99.90
9201;DHT22;4635;48.686;9.008;2023-05-07T17:38:14;16.10;99.90
9201;DHT22;4635;48.686;9.008;2023-05-07T17:40:42;16.00;99.90
9201;DHT22;4635;48.686;9.008;2023-05-07T17:43:16;16.00;99.90
9201;DHT22;4635;48.686;9.008;2023-05-07T17:46:06;16.00;99.90
9201;DHT22;4635;48.686;9.008;2023-05-07T17:48:41;15.80;99.90
9201;DHT22;4635;48.686;9.008;2023-05-07T17:51:33;15.80;99.90
9201;DHT22;4635;48.686;9.008;2023-05-07T17:54:19;15.70;99.90
9201;DHT22;4635;48.686;9.008;2023-05-07T17:57:01;15.70;99.90
9201;DHT22;4635;48.686;9.008;2023-05-07T17:59:32;15.60;99.90
9201;DHT22;4635;48.686;9.008;2023-05-07T18:02:04;15.50;99.90
9201;DHT22;4635;48.686;9.008;2023-05-07T18:04:38;15.50;99.90
9201;DHT22;4635;48.686;9.008;2023-05-07T18:07:13;15.50;99.90
9201;DHT22;4635;48.686;9.008;2023-05-07T18:09:50;15.50;99.90
9201;DHT22;4635;48.686;9.008;2023-05-07T18:12:18;15.50;99.90
9201;DHT22;4635;48.686;9.008;2023-05-07T18:14:46;15.50;99.90
9201;DHT22;4635;48.686;9.008;2023-05-07T18:17:17;15.50;99.90
9201;DHT22;4635;48.686;9.008;2023-05-07T18:19:58;15.50;99.90
9201;DHT22;4635;48.686;9.008;2023-05-07T18:22:46;15.50;99.90
9201;DHT22;4635;48.686;9.008;2023-05-07T18:56:15;15.20;99.90
9201;DHT22;4635;48.686;9.008;2023-05-07T18:58:49;15.10;99.90
9201;DHT22;4635;48.686;9.008;2023-05-07T19:01:31;15.10;99.90
9201;DHT22;4635;48.686;9.008;2023-05-07T19:04:05;15.00;99.90
9201;DHT22;4635;48.686;9.008;2023-05-07T19:06:34;14.90;99.90
9201;DHT22;4635;48.686;9.008;2023-05-07T19:09:04;15.00;99.90
9201;DHT22;4635;48.686;9.008;2023-05-07T19:11:36;14.90;99.90
9201;DHT22;4635;48.686;9.008;2023-05-07T19:14:05;14.60;99.90
9201;DHT22;4635;48.686;9.008;2023-05-07T19:16:41;14.60;99.90
9201;DHT22;4635;48.686;9.008;2023-05-07T19:19:09;14.60;99.90
9201;DHT22;4635;48.686;9.008;2023-05-07T19:21:39;14.50;99.90
9201;DHT22;4635;48.686;9.008;2023-05-07T19:24:08;14.50;99.90
9201;DHT22;4635;48.686;9.008;2023-05-07T19:26:43;14.60;99.90
9201;DHT22;4635;48.686;9.008;2023-05-07T19:29:13;14.40;99.90
9201;DHT22;4635;48.686;9.008;2023-05-07T19:31:47;14.40;99.90
9201;DHT22;4635;48.686;9.008;2023-05-07T19:34:14;14.40;99.90
9201;DHT22;4635;48.686;9.008;2023-05-07T19:36:47;14.30;99.90
9201;DHT22;4635;48.686;9.008;2023-05-07T19:39:17;14.40;99.90
9201;DHT22;4635;48.686;9.008;2023-05-07T19:41:47;14.40;99.90
9201;DHT22;4635;48.686;9.008;2023-05-07T19:44:18;14.40;99.90
9201;DHT22;4635;48.686;9.008;2023-05-07T19:46:46;14.40;99.90
9201;DHT22;4635;48.686;9.008;2023-05-07T19:49:16;14.40;99.90
9201;DHT22;4635;48.686;9.008;2023-05-07T19:51:57;14.40;99.90
9201;DHT22;4635;48.686;9.008;2023-05-07T19:54:27;14.50;99.90
9201;DHT22;4635;48.686;9.008;2023-05-07T19:57:04;14.40;99.90
9201;DHT22;4635;48.686;9.008;2023-05-07T19:59:31;14.40;99.90
9201;DHT22;4635;48.686;9.008;2023-05-07T20:02:03;14.50;99.90
9201;DHT22;4635;48.686;9.008;2023-05-07T20:04:35;14.40;99.90
9201;DHT22;4635;48.686;9.008;2023-05-07T20:07:08;14.30;99.90
9201;DHT22;4635;48.686;9.008;2023-05-07T20:09:37;14.30;99.90
9201;DHT22;4635;48.686;9.008;2023-05-07T20:12:08;14.40;99.90
9201;DHT22;4635;48.686;9.008;2023-05-07T20:14:36;14.40;99.90
9201;DHT22;4635;48.686;9.008;2023-05-07T20:17:04;14.30;99.90
9201;DHT22;4635;48.686;9.008;2023-05-07T20:19:32;14.30;99.90
9201;DHT22;4635;48.686;9.008;2023-05-07T20:22:02;14.20;99.90
9201;DHT22;4635;48.686;9.008;2023-05-07T20:24:30;14.20;99.90
9201;DHT22;4635;48.686;9.008;2023-05-07T20:27:08;14.20;99.90
9201;DHT22;4635;48.686;9.008;2023-05-07T20:29:51;14.10;99.90
9201;DHT22;4635;48.686;9.008;2023-05-07T20:32:25;14.10;99.90
9201;DHT22;4635;48.686;9.008;2023-05-07T20:35:01;14.10;99.90
9201;DHT22;4635;48.686;9.008;2023-05-07T20:37:37;14.10;99.90
9201;DHT22;4635;48.686;9.008;2023-05-07T20:40:06;14.10;99.90
9201;DHT22;4635;48.686;9.008;2023-05-07T20:42:39;14.10;99.90
9201;DHT22;4635;48.686;9.008;2023-05-07T20:45:09;14.10;99.90
9201;DHT22;4635;48.686;9.008;2023-05-07T20:47:42;14.10;99.90
9201;DHT22;4635;48.686;9.008;2023-05-07T20:50:25;14.10;99.90
9201;DHT22;4635;48.686;9.008;2023-05-07T20:52:55;14.10;99.90
9201;DHT22;4635;48.686;9.008;2023-05-07T20:55:26;14.10;99.90
9201;DHT22;4635;48.686;9.008;2023-05-07T21:01:06;14.10;99.90
9201;DHT22;4635;48.686;9.008;2023-05-07T21:03:44;14.00;99.90
9201;DHT22;4635;48.686;9.008;2023-05-07T21:06:14;14.10;99.90
9201;DHT22;4635;48.686;9.008;2023-05-07T21:08:56;14.00;99.90
9201;DHT22;4635;48.686;9.008;2023-05-07T21:11:37;14.00;99.90
9201;DHT22;4635;48.686;9.008;2023-05-07T21:14:19;13.90;99.90
9201;DHT22;4635;48.686;9.008;2023-05-07T21:17:03;13.90;99.90
9201;DHT22;4635;48.686;9.008;2023-05-07T21:19:50;13.90;99.90
9201;DHT22;4635;48.686;9.008;2023-05-07T21:22:22;13.90;99.90
9201;DHT22;4635;48.686;9.008;2023-05-07T21:25:13;13.90;99.90
9201;DHT22;4635;48.686;9.008;2023-05-07T21:27:56;13.90;99.90
9201;DHT22;4635;48.686;9.008;2023-05-07T21:30:37;13.90;99.90
9201;DHT22;4635;48.686;9.008;2023-05-07T21:33:29;13.90;99.90
9201;DHT22;4635;48.686;9.008;2023-05-07T21:36:06;14.00;99.90
9201;DHT22;4635;48.686;9.008;2023-05-07T21:38:53;13.80;99.90
9201;DHT22;4635;48.686;9.008;2023-05-07T21:41:34;13.90;99.90
9201;DHT22;4635;48.686;9.008;2023-05-07T21:44:04;13.90;99.90
9201;DHT22;4635;48.686;9.008;2023-05-07T21:46:45;13.90;99.90
9201;DHT22;4635;48.686;9.008;2023-05-07T21:49:19;13.90;99.90
9201;DHT22;4635;48.686;9.008;2023-05-07T21:51:57;13.90;99.90
9201;DHT22;4635;48.686;9.008;2023-05-07T21:54:26;13.90;99.90
9201;DHT22;4635;48.686;9.008;2023-05-07T21:57:08;13.90;99.90
9201;DHT22;4635;48.686;9.008;2023-05-07T21:59:49;13.90;99.90
9201;DHT22;4635;48.686;9.008;2023-05-07T22:02:22;13.80;99.90
9201;DHT22;4635;48.686;9.008;2023-05-07T22:10:33;13.80;99.90
9201;DHT22;4635;48.686;9.008;2023-05-07T22:13:02;13.80;99.90
9201;DHT22;4635;48.686;9.008;2023-05-07T22:15:31;13.80;99.90
9201;DHT22;4635;48.686;9.008;2023-05-07T22:18:10;13.80;99.90
9201;DHT22;4635;48.686;9.008;2023-05-07T22:20:49;13.70;99.90
9201;DHT22;4635;48.686;9.008;2023-05-07T22:23:19;13.70;99.90
9201;DHT22;4635;48.686;9.008;2023-05-07T22:25:57;13.70;99.90
9201;DHT22;4635;48.686;9.008;2023-05-07T22:28:33;13.80;99.90
9201;DHT22;4635;48.686;9.008;2023-05-07T22:31:15;13.80;99.90
9201;DHT22;4635;48.686;9.008;2023-05-07T22:33:56;13.70;99.90
9201;DHT22;4635;48.686;9.008;2023-05-07T22:36:26;13.70;99.90
9201;DHT22;4635;48.686;9.008;2023-05-07T22:38:55;13.80;99.90
9201;DHT22;4635;48.686;9.008;2023-05-07T22:41:29;13.70;99.90
9201;DHT22;4635;48.686;9.008;2023-05-07T22:43:58;13.70;84.30
9201;DHT22;4635;48.686;9.008;2023-05-07T22:46:27;13.70;99.90
9201;DHT22;4635;48.686;9.008;2023-05-07T22:48:58;13.80;99.90
9201;DHT22;4635;48.686;9.008;2023-05-07T22:51:27;13.80;99.90
9201;DHT22;4635;48.686;9.008;2023-05-07T22:53:59;13.80;99.90
9201;DHT22;4635;48.686;9.008;2023-05-07T22:56:30;13.80;99.90
9201;DHT22;4635;48.686;9.008;2023-05-07T22:59:12;13.80;92.30